El Paso, TX (88536)

4:49 AM MDT on July 27, 2016 (GMT -0600)
Park Foothills | | Change Station

Elev 4039 ft 31.85 °N, 106.45 °W | Updated 19 seconds ago

Overcast
Overcast
73.6 °F
Feels Like 76 °F
N
3.0
Wind Variable Wind from West
Gusts 6.0 mph

Today
High -- | Low -- °F
--% Chance of Precip.
Yesterday
High -- | Low -- °F
Precip. -- in
Pressure 29.86 in
Visibility 5.0 miles
Clouds Scattered Clouds 2300 ft
Mostly Cloudy 5500 ft
Mostly Cloudy 9500 ft
Heat Index 76 °F
Dew Point 63 °F
Humidity 69%
Rainfall 0.00 in
Snow Depth Not available.
6:18 AM 8:05 PM
Last Quarter, 44% visible
METAR KELP 270951Z COR 34006KT 5SM RA SCT023 BKN055CB BKN095 24/18 A3010 RMK AO2 RAB22 SLP110 CB ALQDS MOV S MTNS PTLY OBSCD SW-NW P0008 T02390178
Pressure 29.86 in
Visibility 5.0 miles
Clouds Scattered Clouds 2300 ft
Mostly Cloudy 5500 ft
Mostly Cloudy 9500 ft
Heat Index 76 °F
Dew Point 63 °F
Humidity 69%
Rainfall 0.00 in
Snow Depth Not available.
6:18 AM 8:05 PM
Last Quarter, 44% visible
METAR KELP 270951Z COR 34006KT 5SM RA SCT023 BKN055CB BKN095 24/18 A3010 RMK AO2 RAB22 SLP110 CB ALQDS MOV S MTNS PTLY OBSCD SW-NW P0008 T02390178

10-Day Weather Forecast

Almanac

Astronomy

Jul. 27, 2016 Rise Set
Actual Time
Civil Twilight
Nautical Twilight
Astronomical Twilight
Moon
Length of Visible Light
Length of Day
Tomorrow will be .
, % of the Moon is Illuminated

Today's Extremes

State Highs State Lows

Community

WunderPhotos

Upload Photos

1,927,825 photos uploaded!

WunderBlog® & News

Nearby

Air Quality

  Air Quality AQ Index Pollutant
Not available.

Snow Depth

Station Depth Elevation

Earthquake Activity

City Distance Mag. Time & Date
Minimum magnitude displayed is 2.5.

Coastal Water Temperatures

Place Temperature

Stations

Nearby Weather Stations

Station Location Temp. Windchill Dew Point Humidity Wind Precip. Elev Updated Type
                   

Watches & Warnings

There are currently no watches in effect.